createdAt,value
2019-01-24T00:00:04.277Z,97.43
2019-01-24T00:01:15.131Z,97.43
2019-01-24T00:02:24.798Z,96.39
2019-01-24T00:03:34.718Z,96.96
2019-01-24T00:04:44.691Z,96.39
2019-01-24T00:05:54.605Z,97.05
2019-01-24T00:07:04.523Z,96.68
2019-01-24T00:08:14.194Z,96.68
2019-01-24T00:09:23.862Z,96.39
2019-01-24T00:10:33.530Z,96.86
2019-01-24T00:11:43.489Z,96.86
2019-01-24T00:12:52.910Z,97.43
2019-01-24T00:14:02.572Z,97.53
2019-01-24T00:15:12.041Z,96.39
2019-01-24T00:16:22.013Z,97.24
2019-01-24T00:17:31.797Z,96.68
2019-01-24T00:18:41.218Z,96.77
2019-01-24T00:19:51.142Z,96.58
2019-01-24T00:21:01.053Z,96.77
2019-01-24T00:22:10.212Z,96.96
2019-01-24T00:23:19.895Z,96.77
2019-01-24T00:24:29.565Z,96.58
2019-01-24T00:25:38.986Z,96.58
2019-01-24T00:26:48.156Z,97.43
2019-01-24T00:27:57.354Z,97.34
2019-01-24T00:29:07.026Z,96.68
2019-01-24T00:30:16.963Z,96.77
2019-01-24T00:31:26.647Z,96.77
2019-01-24T00:32:35.818Z,96.86
2019-01-24T00:33:45.484Z,96.77
2019-01-24T00:34:55.153Z,96.86
2019-01-24T00:36:04.819Z,96.68
2019-01-24T00:37:14.233Z,97.34
2019-01-24T00:38:23.649Z,96.58
2019-01-24T00:39:33.318Z,96.77
2019-01-24T00:40:42.736Z,97.43
2019-01-24T00:41:52.410Z,97.43
2019-01-24T00:43:01.576Z,96.77
2019-01-24T00:44:11.252Z,96.96
2019-01-24T00:45:21.179Z,96.58
2019-01-24T00:46:31.097Z,97.62
2019-01-24T00:47:40.769Z,97.24
2019-01-24T00:48:50.183Z,97.72
2019-01-24T00:49:59.363Z,97.53
2019-01-24T00:51:08.808Z,97.15
2019-01-24T00:52:18.226Z,97.34
2019-01-24T00:53:27.389Z,97.24
2019-01-24T00:54:37.056Z,97.43
2019-01-24T00:55:46.772Z,97.34
2019-01-24T00:56:56.440Z,97.72
2019-01-24T00:58:05.855Z,97.43
2019-01-24T00:59:15.771Z,97.43
2019-01-24T01:00:24.938Z,97.43
2019-01-24T01:01:34.863Z,97.43
2019-01-24T01:02:45.564Z,97.24
2019-01-24T01:03:55.231Z,97.05
2019-01-24T01:05:04.653Z,97.43
2019-01-24T01:06:14.322Z,97.34
2019-01-24T01:07:23.997Z,97.34
2019-01-24T01:08:33.426Z,96.96
2019-01-24T01:09:43.350Z,97.43
2019-01-24T01:10:53.268Z,97.24
2019-01-24T01:12:02.939Z,97.43
2019-01-24T01:13:12.608Z,97.43
2019-01-24T01:14:22.279Z,97.72
2019-01-24T01:15:33.114Z,97.05
2019-01-24T01:16:42.832Z,97.72
2019-01-24T01:17:52.758Z,97.62
2019-01-24T01:19:02.679Z,97.62
2019-01-24T01:20:12.386Z,96.68
2019-01-24T01:21:21.812Z,97.24
2019-01-24T01:22:31.482Z,97.24
2019-01-24T01:23:40.903Z,97.05
2019-01-24T01:24:50.831Z,97.43
2019-01-24T01:26:00.494Z,97.91
2019-01-24T01:27:10.165Z,97.24
2019-01-24T01:28:19.843Z,97.81
2019-01-24T01:29:29.262Z,97.43
2019-01-24T01:30:38.935Z,97.43
2019-01-24T01:31:48.101Z,97.72
2019-01-24T01:32:57.771Z,97.15
2019-01-24T01:34:07.444Z,97.62
2019-01-24T01:35:17.362Z,97.34
2019-01-24T01:36:27.024Z,97.81
2019-01-24T01:37:36.942Z,97.62
2019-01-24T01:38:46.859Z,97.62
2019-01-24T01:39:56.520Z,97.62
2019-01-24T01:41:06.438Z,97.72
2019-01-24T01:42:16.103Z,97.62
2019-01-24T01:43:25.767Z,97.72
2019-01-24T01:44:35.184Z,97.62
2019-01-24T01:45:45.098Z,98
2019-01-24T01:46:55.019Z,97.43
2019-01-24T01:48:04.688Z,98
2019-01-24T01:49:14.354Z,97.62
2019-01-24T01:50:24.266Z,97.53
2019-01-24T01:51:33.928Z,97.62
2019-01-24T01:52:43.102Z,97.81
2019-01-24T01:53:52.526Z,98
2019-01-24T01:55:01.944Z,97.81
2019-01-24T01:56:11.872Z,97.24
2019-01-24T01:57:21.294Z,97.24
2019-01-24T01:58:31.217Z,97.62
2019-01-24T01:59:41.132Z,97.53
2019-01-24T02:00:50.295Z,97.05
2019-01-24T02:01:59.958Z,97.53
2019-01-24T02:03:09.624Z,97.81
2019-01-24T02:04:19.287Z,97.72
2019-01-24T02:05:28.493Z,97.53
2019-01-24T02:06:38.416Z,97.91
2019-01-24T02:07:48.092Z,97.81
2019-01-24T02:08:57.757Z,97.72
2019-01-24T02:10:07.171Z,97.62
2019-01-24T02:11:16.836Z,97.91
2019-01-24T02:12:26.750Z,97.62
2019-01-24T02:13:36.666Z,97.91
2019-01-24T02:14:46.584Z,97.53
2019-01-24T02:15:56.252Z,97.53
2019-01-24T02:17:06.163Z,97.91
2019-01-24T02:18:16.077Z,98
2019-01-24T02:19:25.536Z,98
2019-01-24T02:20:35.207Z,98.19
2019-01-24T02:21:45.122Z,98
2019-01-24T02:22:54.798Z,98.75
2019-01-24T02:24:04.222Z,98.47
2019-01-24T02:25:13.638Z,98.66
2019-01-24T02:26:23.054Z,98.19
2019-01-24T02:27:32.720Z,98.1
2019-01-24T02:28:42.389Z,97.81
2019-01-24T02:29:52.052Z,97.62
2019-01-24T02:31:01.730Z,97.62
2019-01-24T02:32:11.652Z,97.43
2019-01-24T02:33:21.317Z,97.72
2019-01-24T02:34:30.983Z,97.62
2019-01-24T02:35:40.900Z,97.53
2019-01-24T02:36:50.814Z,97.53
2019-01-24T02:38:00.491Z,97.81
2019-01-24T02:39:09.924Z,97.72
2019-01-24T02:40:19.337Z,97.62
2019-01-24T02:41:28.750Z,97.62
2019-01-24T02:42:38.174Z,97.62
2019-01-24T02:43:48.105Z,97.53
2019-01-24T02:44:57.291Z,97.72
2019-01-24T02:46:07.226Z,97.62
2019-01-24T02:47:17.163Z,97.53
2019-01-24T02:48:27.093Z,98
2019-01-24T02:49:36.517Z,97.81
2019-01-24T02:50:46.185Z,97.81
2019-01-24T02:51:55.859Z,97.62
2019-01-24T02:53:05.285Z,97.53
2019-01-24T02:54:14.961Z,98.38
2019-01-24T02:55:24.387Z,98.1
2019-01-24T02:56:34.340Z,97.38
2019-01-24T02:57:44.265Z,97.95
2019-01-24T02:58:54.218Z,97.53
2019-01-24T03:00:03.958Z,98.04
2019-01-24T03:01:13.149Z,97.38
2019-01-24T03:02:23.070Z,97.62
2019-01-24T03:03:32.757Z,97.91
2019-01-24T03:04:42.671Z,97.53
2019-01-24T03:05:52.354Z,97.43
2019-01-24T03:07:01.796Z,97.34
2019-01-24T03:08:11.470Z,97.48
2019-01-24T03:09:21.145Z,97.57
2019-01-24T03:10:30.810Z,97.38
2019-01-24T03:11:40.474Z,97.48
2019-01-24T03:12:50.139Z,97.29
2019-01-24T03:13:59.811Z,97.29
2019-01-24T03:15:09.485Z,97.38
2019-01-24T03:16:19.421Z,97.57
2019-01-24T03:17:29.346Z,97.29
2019-01-24T03:18:38.766Z,97.76
2019-01-24T03:19:48.434Z,97.38
2019-01-24T03:20:58.104Z,97.48
2019-01-24T03:22:07.271Z,97.29
2019-01-24T03:23:17.192Z,97.57
2019-01-24T03:24:26.864Z,97.48
2019-01-24T03:25:36.786Z,97.85
2019-01-24T03:26:46.713Z,97.48
2019-01-24T03:27:56.376Z,97.38
2019-01-24T03:29:06.044Z,97.29
2019-01-24T03:30:15.774Z,97.67
2019-01-24T03:31:25.495Z,97.57
2019-01-24T03:32:35.447Z,97.29
2019-01-24T03:33:45.417Z,97.76
2019-01-24T03:34:55.343Z,97.76
2019-01-24T03:36:11.918Z,97.48
2019-01-24T03:37:21.585Z,97.29
2019-01-24T03:38:31.256Z,97.48
2019-01-24T03:39:40.678Z,97.67
2019-01-24T03:40:50.367Z,97.76
2019-01-24T03:42:00.298Z,97.38
2019-01-24T03:43:10.232Z,97.38
2019-01-24T03:44:19.652Z,97.67
2019-01-24T03:45:29.339Z,97.67
2019-01-24T03:46:39.010Z,97.76
2019-01-24T03:47:48.183Z,97.67
2019-01-24T03:48:57.606Z,97.29
2019-01-24T03:50:06.796Z,97.38
2019-01-24T03:51:16.466Z,97.29
2019-01-24T03:52:25.881Z,97.57
2019-01-24T03:53:35.796Z,97.76
2019-01-24T03:54:45.469Z,97.85
2019-01-24T03:55:55.136Z,97.95
2019-01-24T03:57:05.064Z,98.04
2019-01-24T03:58:14.985Z,97.85
2019-01-24T03:59:24.943Z,97.76
2019-01-24T04:00:34.610Z,98.61
2019-01-24T04:01:44.532Z,97.29
2019-01-24T04:02:53.966Z,97.29
2019-01-24T04:04:03.921Z,97.85
2019-01-24T04:05:14.567Z,97.95
2019-01-24T04:06:24.232Z,97.38
2019-01-24T04:07:33.903Z,97.85
2019-01-24T04:08:43.580Z,97.29
2019-01-24T04:09:53.251Z,97.19
2019-01-24T04:11:02.923Z,97.57
2019-01-24T04:12:12.848Z,97.85
2019-01-24T04:13:22.529Z,97.95
2019-01-24T04:14:32.468Z,97.57
2019-01-24T04:15:42.164Z,97.57
2019-01-24T04:16:51.841Z,97.48
2019-01-24T04:18:01.779Z,97.67
2019-01-24T04:19:11.462Z,97.48
2019-01-24T04:20:20.887Z,97.38
2019-01-24T04:21:30.057Z,97.38
2019-01-24T04:22:39.498Z,97.48
2019-01-24T04:23:49.170Z,97.48
2019-01-24T04:24:59.126Z,97.67
2019-01-24T04:26:08.796Z,97.67
2019-01-24T04:27:18.217Z,97.67
2019-01-24T04:28:28.141Z,97.48
2019-01-24T04:29:37.812Z,98.04
2019-01-24T04:30:47.266Z,97.85
2019-01-24T04:31:56.433Z,97.29
2019-01-24T04:33:06.365Z,97.76
2019-01-24T04:34:16.036Z,97.48
2019-01-24T04:35:25.701Z,97.85
2019-01-24T04:36:35.126Z,97.95
2019-01-24T04:37:45.057Z,97.85
2019-01-24T04:38:54.724Z,98.23
2019-01-24T04:40:04.409Z,98.14
2019-01-24T04:41:14.075Z,97.76
2019-01-24T04:42:23.990Z,97.85
2019-01-24T04:43:33.410Z,98.42
2019-01-24T04:44:43.078Z,97.76
2019-01-24T04:45:52.994Z,97.76
2019-01-24T04:47:02.908Z,97.95
2019-01-24T04:48:12.830Z,97.95
2019-01-24T04:49:22.255Z,97.95
2019-01-24T04:50:31.426Z,97.57
2019-01-24T04:51:41.105Z,98.42
2019-01-24T04:52:50.783Z,98.33
2019-01-24T04:54:00.453Z,97.95
2019-01-24T04:55:09.384Z,97.95
2019-01-24T04:56:19.065Z,97.95
2019-01-24T04:57:28.732Z,98.52
2019-01-24T04:58:38.450Z,97.95
2019-01-24T04:59:48.122Z,98.61
2019-01-24T05:00:57.296Z,98.42
2019-01-24T05:02:06.717Z,97.67
2019-01-24T05:03:16.278Z,97.38
2019-01-24T05:04:25.490Z,97.48
2019-01-24T05:05:35.164Z,97.48
2019-01-24T05:06:44.833Z,97.38
2019-01-24T05:07:54.762Z,97.57
2019-01-24T05:09:04.698Z,97.76
2019-01-24T05:10:14.622Z,98.14
2019-01-24T05:11:24.300Z,97.85
2019-01-24T05:12:33.994Z,97.76
2019-01-24T05:13:43.670Z,97.95
2019-01-24T05:14:53.599Z,97.95
2019-01-24T05:16:03.534Z,98.14
2019-01-24T05:17:12.950Z,98.23
2019-01-24T05:18:22.369Z,98.14
2019-01-24T05:19:32.288Z,98.33
2019-01-24T05:20:42.223Z,97.85
2019-01-24T05:21:51.898Z,97.95
2019-01-24T05:23:01.322Z,98.14
2019-01-24T05:24:11.238Z,98.33
2019-01-24T05:25:21.164Z,98.61
2019-01-24T05:26:30.842Z,97.48
2019-01-24T05:27:40.764Z,97.85
2019-01-24T05:28:50.447Z,97.57
2019-01-24T05:30:00.130Z,97.95
2019-01-24T05:31:09.886Z,97.57
2019-01-24T05:32:19.807Z,98.04
2019-01-24T05:33:29.467Z,97.85
2019-01-24T05:34:39.397Z,97.76
2019-01-24T05:35:49.060Z,97.95
2019-01-24T05:36:58.982Z,98.04
2019-01-24T05:38:08.397Z,97.76
2019-01-24T05:39:18.319Z,97.57
2019-01-24T05:40:28.265Z,97.38
2019-01-24T05:41:37.694Z,97.67
2019-01-24T05:42:47.634Z,98.61
2019-01-24T05:43:57.550Z,98.04
2019-01-24T05:45:06.962Z,97.48
2019-01-24T05:46:16.634Z,98.14
2019-01-24T05:47:26.556Z,97.9
2019-01-24T05:48:36.237Z,98.37
2019-01-24T05:49:45.912Z,98.56
2019-01-24T05:50:55.830Z,98.37
2019-01-24T05:52:05.503Z,98.28
2019-01-24T05:53:22.570Z,98.37
2019-01-24T05:54:32.023Z,98.28
2019-01-24T05:55:41.719Z,98.18
2019-01-24T05:56:51.639Z,97.99
2019-01-24T05:58:01.316Z,98.52
2019-01-24T05:59:10.989Z,98.09
2019-01-24T06:00:20.404Z,97.9
2019-01-24T06:01:30.082Z,98.52
2019-01-24T06:02:39.818Z,97.76
2019-01-24T06:03:49.494Z,97.85
2019-01-24T06:04:59.413Z,98.71
2019-01-24T06:06:08.836Z,97.61
2019-01-24T06:07:18.761Z,97.99
2019-01-24T06:08:28.760Z,97.9
2019-01-24T06:09:38.677Z,97.85
2019-01-24T06:10:48.085Z,98.61
2019-01-24T06:11:57.770Z,98.09
2019-01-24T06:13:07.191Z,98.52
2019-01-24T06:14:16.885Z,98.42
2019-01-24T06:15:26.300Z,97.76
2019-01-24T06:16:35.977Z,97.61
2019-01-24T06:17:45.642Z,97.95
2019-01-24T06:18:55.313Z,98.52
2019-01-24T06:20:04.724Z,98.04
2019-01-24T06:21:14.398Z,97.57
2019-01-24T06:22:23.826Z,97.67
2019-01-24T06:23:33.775Z,97.95
2019-01-24T06:24:43.707Z,98.18
2019-01-24T06:25:53.379Z,97.67
2019-01-24T06:27:03.300Z,98.56
2019-01-24T06:28:13.021Z,98.37
2019-01-24T06:29:22.684Z,98.71
2019-01-24T06:30:32.593Z,98.56
2019-01-24T06:31:42.014Z,97.8
2019-01-24T06:32:51.675Z,97.8
2019-01-24T06:34:01.586Z,98.42
2019-01-24T06:35:11.261Z,97.76
2019-01-24T06:36:20.680Z,98.14
2019-01-24T06:37:30.103Z,98.71
2019-01-24T06:38:40.030Z,98.04
2019-01-24T06:39:49.880Z,98.47
2019-01-24T06:40:59.305Z,98.37
2019-01-24T06:42:09.226Z,98.18
2019-01-24T06:43:18.639Z,98.65
2019-01-24T06:44:28.306Z,98.56
2019-01-24T06:45:38.226Z,98.18
2019-01-24T06:46:47.895Z,98.18
2019-01-24T06:47:57.312Z,98.37
2019-01-24T06:49:07.239Z,98.65
2019-01-24T06:50:16.655Z,98.37
2019-01-24T06:51:25.821Z,98.42
2019-01-24T06:52:35.731Z,98.65
2019-01-24T06:53:45.402Z,98.47
2019-01-24T06:54:55.365Z,98.71
2019-01-24T06:56:05.102Z,97.95
2019-01-24T06:57:14.774Z,97.57
2019-01-24T06:58:24.202Z,97.67
2019-01-24T06:59:33.619Z,97.95
2019-01-24T07:00:44.045Z,97.85
2019-01-24T07:01:53.718Z,97.57
2019-01-24T07:03:03.387Z,98.61
2019-01-24T07:04:13.056Z,97.67
2019-01-24T07:05:22.470Z,97.76
2019-01-24T07:06:32.148Z,97.67
2019-01-24T07:07:41.823Z,97.76
2019-01-24T07:08:51.488Z,97.48
2019-01-24T07:10:00.679Z,97.61
2019-01-24T07:11:10.473Z,98.37
2019-01-24T07:12:19.639Z,98.18
2019-01-24T07:13:29.055Z,98.56
2019-01-24T07:14:38.739Z,98.84
2019-01-24T07:15:48.399Z,98.37
2019-01-24T07:16:57.815Z,98.23
2019-01-24T07:18:07.477Z,98.04
2019-01-24T07:19:16.641Z,97.95
2019-01-24T07:20:26.059Z,97.95
2019-01-24T07:21:35.724Z,97.57
2019-01-24T07:22:45.639Z,97.57
2019-01-24T07:23:55.577Z,97.57
2019-01-24T07:25:05.494Z,97.67
2019-01-24T07:26:15.407Z,97.57
2019-01-24T07:27:24.822Z,97.67
2019-01-24T07:28:34.486Z,97.48
2019-01-24T07:29:43.907Z,97.95
2019-01-24T07:30:53.567Z,98.04
2019-01-24T07:32:03.231Z,98.9
2019-01-24T07:33:12.644Z,98.14
2019-01-24T07:34:22.082Z,98.52
2019-01-24T07:35:31.503Z,97.76
2019-01-24T07:36:40.419Z,97.95
2019-01-24T07:37:50.087Z,97.76
2019-01-24T07:38:59.748Z,97.85
2019-01-24T07:40:09.663Z,98.52
2019-01-24T07:41:19.104Z,97.57
2019-01-24T07:42:28.518Z,97.48
2019-01-24T07:43:37.936Z,98.04
2019-01-24T07:44:47.635Z,97.67
2019-01-24T07:45:57.302Z,97.19
2019-01-24T07:47:06.712Z,97.48
2019-01-24T07:48:16.377Z,97.57
2019-01-24T07:49:26.291Z,97.85
2019-01-24T07:50:35.962Z,97.57
2019-01-24T07:51:45.876Z,97.95
2019-01-24T07:52:55.539Z,97.76
2019-01-24T07:54:05.206Z,98.04
2019-01-24T07:55:14.367Z,97.85
2019-01-24T07:56:24.282Z,97.85
2019-01-24T07:57:33.694Z,97.85
2019-01-24T07:58:43.362Z,97.57
2019-01-24T07:59:53.279Z,97.67
2019-01-24T08:01:03.206Z,97.85
2019-01-24T08:02:12.878Z,97.76
2019-01-24T08:03:22.551Z,98.04
2019-01-24T08:04:32.458Z,97.95
2019-01-24T08:05:42.379Z,97.67
2019-01-24T08:06:52.056Z,97.95
2019-01-24T08:08:01.478Z,98.04
2019-01-24T08:09:11.426Z,98.42
2019-01-24T08:10:21.347Z,98.52
2019-01-24T08:11:31.266Z,97.95
2019-01-24T08:12:40.935Z,98.04
2019-01-24T08:13:50.101Z,98.61
2019-01-24T08:14:59.516Z,98.04
2019-01-24T08:16:09.185Z,98.9
2019-01-24T08:17:19.097Z,98.61
2019-01-24T08:18:28.775Z,97.38
2019-01-24T08:19:38.693Z,98.61
2019-01-24T08:20:48.359Z,97.95
2019-01-24T08:21:57.533Z,98.33
2019-01-24T08:23:07.449Z,97.67
2019-01-24T08:24:17.118Z,98.23
2019-01-24T08:25:27.030Z,98.71
2019-01-24T08:26:36.957Z,98.61
2019-01-24T08:27:46.662Z,97.57
2019-01-24T08:28:56.337Z,98.23
2019-01-24T08:30:05.749Z,97.76
2019-01-24T08:31:15.668Z,98.42
2019-01-24T08:32:25.585Z,97.95
2019-01-24T08:33:35.246Z,97.85
2019-01-24T08:34:45.161Z,97.95
2019-01-24T08:35:54.579Z,98.71
2019-01-24T08:37:04.499Z,98.33
2019-01-24T08:38:14.166Z,98.52
2019-01-24T08:39:24.093Z,97.76
2019-01-24T08:40:34.012Z,97.67
2019-01-24T08:41:43.933Z,98.42
2019-01-24T08:42:53.659Z,97.95
2019-01-24T08:44:03.577Z,98.71
2019-01-24T08:45:12.999Z,97.48
2019-01-24T08:46:22.676Z,97.57
2019-01-24T08:47:31.847Z,97.57
2019-01-24T08:48:41.303Z,97.76
2019-01-24T08:49:50.965Z,97.67
2019-01-24T08:51:00.876Z,97.67
2019-01-24T08:52:10.796Z,97.57
2019-01-24T08:53:20.208Z,97.57
2019-01-24T08:54:29.395Z,97.57
2019-01-24T08:55:38.818Z,97.76
2019-01-24T08:56:48.238Z,97.38
2019-01-24T08:57:57.656Z,97.57
2019-01-24T08:59:07.321Z,97.76
2019-01-24T09:00:16.990Z,97.85
2019-01-24T09:01:26.662Z,97.95
2019-01-24T09:02:36.576Z,97.38
2019-01-24T09:03:45.999Z,97.38
2019-01-24T09:04:55.418Z,97.57
2019-01-24T09:06:04.837Z,97.48
2019-01-24T09:07:14.008Z,97.48
2019-01-24T09:08:23.432Z,97.57
2019-01-24T09:09:33.356Z,97.67
2019-01-24T09:10:43.044Z,97.57
2019-01-24T09:11:52.248Z,97.29
2019-01-24T09:13:01.913Z,97.57
2019-01-24T09:14:11.582Z,97.57
2019-01-24T09:15:21.003Z,97.76
2019-01-24T09:16:31.882Z,97.19
2019-01-24T09:17:41.799Z,97.57
2019-01-24T09:18:51.467Z,97.29
2019-01-24T09:20:01.391Z,97.67
2019-01-24T09:21:11.366Z,97.1
2019-01-24T09:22:21.027Z,97.57
2019-01-24T09:23:30.945Z,97.57
2019-01-24T09:24:40.604Z,97.57
2019-01-24T09:25:50.276Z,97.38
2019-01-24T09:26:59.445Z,97
2019-01-24T09:28:14.735Z,97.34
2019-01-24T09:29:24.888Z,97.43
2019-01-24T09:30:34.816Z,97.24
2019-01-24T09:31:44.498Z,97.24
2019-01-24T09:32:54.471Z,96.86
2019-01-24T09:34:04.150Z,97.15
2019-01-24T09:35:13.822Z,97.15
2019-01-24T09:36:29.159Z,97.43
2019-01-24T09:37:38.981Z,97.34
2019-01-24T09:38:48.154Z,97.43
2019-01-24T09:39:57.585Z,96.86
2019-01-24T09:41:07.502Z,96.68
2019-01-24T09:42:17.114Z,97.43
2019-01-24T09:43:26.776Z,96.77
2019-01-24T09:44:36.443Z,96.86
2019-01-24T09:45:45.863Z,97.05
2019-01-24T09:46:55.280Z,97.15
2019-01-24T09:48:04.948Z,96.39
2019-01-24T09:49:14.657Z,96.2
2019-01-24T09:50:24.324Z,96.77
2019-01-24T09:51:33.989Z,96.86
2019-01-24T09:52:43.165Z,96.58
2019-01-24T09:53:52.588Z,96.49
2019-01-24T09:55:03.332Z,96.96
2019-01-24T09:56:12.587Z,96.77
2019-01-24T09:57:22.501Z,96.58
2019-01-24T09:58:32.438Z,96.77
2019-01-24T09:59:41.858Z,97.05
2019-01-24T10:00:51.283Z,96.49
2019-01-24T10:02:00.950Z,96.49
2019-01-24T10:03:10.370Z,96.49
2019-01-24T10:04:20.034Z,97.15
2019-01-24T10:05:29.718Z,96.2
2019-01-24T10:06:39.641Z,96.58
2019-01-24T10:07:49.325Z,96.77
2019-01-24T10:08:59.025Z,96.86
2019-01-24T10:10:08.447Z,96.58
2019-01-24T10:11:23.434Z,97.24
2019-01-24T10:12:33.469Z,97.15
2019-01-24T10:13:43.135Z,97.05
2019-01-24T10:14:52.801Z,96.77
2019-01-24T10:16:02.730Z,96.86
2019-01-24T10:17:12.402Z,96.77
2019-01-24T10:18:24.169Z,97.34
2019-01-24T10:19:33.595Z,96.77
2019-01-24T10:20:43.519Z,96.77
2019-01-24T10:21:52.953Z,96.77
2019-01-24T10:23:02.885Z,96.11
2019-01-24T10:24:12.551Z,95.92
2019-01-24T10:25:21.984Z,96.01
2019-01-24T10:26:31.668Z,96.11
2019-01-24T10:27:41.090Z,96.39
2019-01-24T10:28:50.760Z,96.58
2019-01-24T10:30:00.466Z,95.92
2019-01-24T10:31:10.144Z,96.39
2019-01-24T10:32:19.817Z,96.2
2019-01-24T10:33:29.736Z,96.01
2019-01-24T10:34:39.661Z,96.49
2019-01-24T10:35:49.605Z,96.01
2019-01-24T10:36:59.287Z,97.24
2019-01-24T10:38:08.710Z,97.15
2019-01-24T10:39:18.136Z,96.96
2019-01-24T10:40:27.605Z,96.96
2019-01-24T10:41:37.533Z,96.96
2019-01-24T10:42:47.209Z,97.24
2019-01-24T10:43:56.380Z,96.58
2019-01-24T10:45:06.052Z,96.3
2019-01-24T10:46:14.967Z,96.39
2019-01-24T10:47:24.933Z,96.01
2019-01-24T10:48:34.352Z,96.86
2019-01-24T10:49:43.781Z,96.96
2019-01-24T10:50:53.450Z,96.86
2019-01-24T10:52:03.373Z,96.86
2019-01-24T10:53:12.542Z,96.39
2019-01-24T10:54:21.958Z,96.77
2019-01-24T10:55:31.883Z,96.58
2019-01-24T10:56:41.554Z,96.96
2019-01-24T10:57:51.231Z,96.86
2019-01-24T10:59:00.660Z,96.58
2019-01-24T11:00:10.328Z,96.77
2019-01-24T11:01:20.252Z,96.86
2019-01-24T11:02:30.189Z,96.86
2019-01-24T11:03:39.873Z,96.49
2019-01-24T11:04:49.551Z,97.01
2019-01-24T11:05:59.230Z,96.25
2019-01-24T11:07:08.912Z,97.01
2019-01-24T11:08:18.583Z,96.35
2019-01-24T11:09:28.501Z,96.16
2019-01-24T11:10:38.167Z,96.44
2019-01-24T11:11:47.597Z,96.25
2019-01-24T11:12:57.270Z,96.44
2019-01-24T11:14:07.186Z,97.01
2019-01-24T11:15:17.120Z,96.96
2019-01-24T11:16:26.852Z,96.86
2019-01-24T11:17:36.525Z,97.15
2019-01-24T11:18:46.191Z,97.1
2019-01-24T11:19:55.367Z,96.58
2019-01-24T11:21:04.878Z,97.53
2019-01-24T11:22:14.569Z,97.43
2019-01-24T11:23:24.240Z,97.24
2019-01-24T11:24:34.153Z,97.24
2019-01-24T11:25:43.572Z,97.34
2019-01-24T11:26:52.989Z,96.86
2019-01-24T11:28:02.654Z,97.48
2019-01-24T11:29:12.335Z,96.63
2019-01-24T11:30:22.259Z,96.63
2019-01-24T11:31:31.698Z,97.1
2019-01-24T11:32:41.115Z,97.01
2019-01-24T11:33:50.787Z,96.73
2019-01-24T11:34:59.708Z,96.91
2019-01-24T11:36:09.006Z,96.25
2019-01-24T11:37:18.931Z,96.73
2019-01-24T11:38:28.594Z,96.35
2019-01-24T11:39:38.018Z,97.01
2019-01-24T11:40:47.937Z,97.29
2019-01-24T11:41:56.860Z,96.82
2019-01-24T11:43:06.790Z,96.82
2019-01-24T11:44:15.711Z,96.73
2019-01-24T11:45:25.384Z,96.16
2019-01-24T11:46:35.060Z,96.44
2019-01-24T11:47:44.981Z,97.1
2019-01-24T11:48:54.407Z,97.1
2019-01-24T11:50:03.585Z,97.01
2019-01-24T11:51:13.013Z,96.25
2019-01-24T11:52:22.679Z,96.63
2019-01-24T11:53:32.355Z,96.91
2019-01-24T11:54:42.378Z,96.91
2019-01-24T11:55:51.800Z,97.01
2019-01-24T11:57:01.228Z,96.25
2019-01-24T11:58:10.961Z,96.35
2019-01-24T11:59:20.885Z,96.25
2019-01-24T12:00:30.805Z,97.29
2019-01-24T12:01:40.478Z,97.1
2019-01-24T12:02:50.144Z,96.16
2019-01-24T12:03:59.576Z,96.73
2019-01-24T12:05:08.987Z,96.25
2019-01-24T12:06:18.908Z,96.16
2019-01-24T12:07:28.682Z,96.44
2019-01-24T12:08:38.108Z,96.25
2019-01-24T12:09:47.526Z,96.25
2019-01-24T12:10:57.520Z,96.25
2019-01-24T12:12:07.194Z,96.25
2019-01-24T12:13:16.866Z,96.54
2019-01-24T12:14:26.541Z,96.44
2019-01-24T12:15:35.988Z,96.54
2019-01-24T12:16:45.404Z,95.68
2019-01-24T12:17:55.086Z,95.78
2019-01-24T12:19:05.017Z,96.25
2019-01-24T12:20:14.440Z,96.16
2019-01-24T12:21:24.109Z,96.16
2019-01-24T12:22:33.788Z,96.54
2019-01-24T12:23:43.463Z,96.25
2019-01-24T12:24:53.127Z,96.35
2019-01-24T12:26:03.055Z,96.16
2019-01-24T12:27:12.976Z,96.54
2019-01-24T12:28:22.648Z,96.35
2019-01-24T12:29:32.320Z,96.16
2019-01-24T12:30:41.752Z,95.78
2019-01-24T12:31:51.423Z,95.97
2019-01-24T12:33:00.858Z,96.44
2019-01-24T12:34:10.535Z,96.54
2019-01-24T12:35:19.953Z,96.16
2019-01-24T12:36:29.630Z,96.44
2019-01-24T12:37:39.336Z,96.44
2019-01-24T12:38:48.749Z,96.44
2019-01-24T12:39:58.169Z,97.1
2019-01-24T12:41:07.838Z,97.1
2019-01-24T12:42:17.532Z,96.35
2019-01-24T12:43:26.710Z,96.91
2019-01-24T12:44:36.381Z,97.01
2019-01-24T12:45:45.850Z,96.82
2019-01-24T12:46:55.023Z,97.01
2019-01-24T12:48:04.696Z,97.1
2019-01-24T12:49:14.613Z,97.1
2019-01-24T12:50:24.044Z,97.29
2019-01-24T12:51:33.726Z,97.1
2019-01-24T12:52:43.639Z,97.1
2019-01-24T12:53:53.319Z,96.91
2019-01-24T12:55:03.340Z,96.25
2019-01-24T12:56:13.253Z,96.44
2019-01-24T12:57:23.181Z,96.82
2019-01-24T12:58:33.105Z,97.1
2019-01-24T12:59:42.777Z,97.2
2019-01-24T13:00:52.739Z,96.44
2019-01-24T13:02:02.692Z,96.91
2019-01-24T13:03:12.611Z,97.01
2019-01-24T13:04:22.278Z,97.01
2019-01-24T13:05:31.951Z,97.1
2019-01-24T13:06:41.375Z,96.16
2019-01-24T13:07:50.797Z,96.44
2019-01-24T13:09:00.723Z,96.25
2019-01-24T13:10:10.397Z,96.44
2019-01-24T13:11:20.062Z,96.63
2019-01-24T13:12:29.478Z,96.44
2019-01-24T13:13:39.151Z,96.25
2019-01-24T13:14:49.064Z,96.35
2019-01-24T13:15:58.996Z,96.44
2019-01-24T13:17:08.665Z,96.35
2019-01-24T13:18:17.843Z,96.06
2019-01-24T13:19:27.261Z,96.44
2019-01-24T13:20:36.964Z,96.63
2019-01-24T13:21:46.641Z,96.82
2019-01-24T13:22:56.315Z,97.1
2019-01-24T13:24:05.995Z,96.44
2019-01-24T13:25:15.922Z,96.91
2019-01-24T13:26:25.348Z,96.25
2019-01-24T13:27:35.019Z,96.91
2019-01-24T13:28:44.695Z,96.35
2019-01-24T13:29:54.379Z,96.06
2019-01-24T13:31:04.306Z,96.16
2019-01-24T13:32:13.982Z,96.25
2019-01-24T13:33:23.898Z,96.35
2019-01-24T13:34:33.820Z,96.35
2019-01-24T13:35:43.255Z,96.25
2019-01-24T13:36:52.922Z,96.44
2019-01-24T13:38:02.346Z,96.63
2019-01-24T13:39:12.057Z,96.16
2019-01-24T13:40:21.744Z,96.16
2019-01-24T13:41:31.168Z,95.59
2019-01-24T13:42:47.287Z,95.78
2019-01-24T13:43:57.204Z,95.68
2019-01-24T13:45:06.877Z,96.16
2019-01-24T13:46:16.804Z,96.16
2019-01-24T13:47:26.482Z,96.91
2019-01-24T13:48:36.404Z,97.1
2019-01-24T13:49:46.079Z,96.82
2019-01-24T13:53:27.559Z,96.49
2019-01-24T13:54:37.277Z,96.4
2019-01-24T13:55:46.698Z,96.4
2019-01-24T13:56:56.369Z,96.59
2019-01-24T13:58:06.295Z,96.3
2019-01-24T13:59:15.712Z,96.06
2019-01-24T14:00:25.138Z,96.68
2019-01-24T14:01:34.558Z,96.16
2019-01-24T14:02:44.231Z,97.1
2019-01-24T14:03:53.707Z,96.73
2019-01-24T14:05:03.385Z,96.91
2019-01-24T14:06:13.308Z,96.96
2019-01-24T14:07:23.226Z,97.1
2019-01-24T14:08:37.992Z,96.73
2019-01-24T14:09:47.669Z,96.87
2019-01-24T14:10:58.049Z,96.63
2019-01-24T14:12:07.574Z,97.01
2019-01-24T14:13:16.994Z,97.72
2019-01-24T14:14:26.925Z,97.15
2019-01-24T14:15:36.878Z,96.96
2019-01-24T14:16:46.558Z,96.68
2019-01-24T14:17:56.231Z,97.25
2019-01-24T14:19:05.897Z,97.25
2019-01-24T14:20:15.562Z,96.87
2019-01-24T14:21:25.230Z,96.63
2019-01-24T14:22:34.905Z,97.06
2019-01-24T14:23:44.327Z,97.44
2019-01-24T14:24:53.996Z,96.91
2019-01-24T14:26:03.677Z,97.63
2019-01-24T14:27:13.344Z,97.58
2019-01-24T14:28:23.018Z,97.53
2019-01-24T14:29:32.188Z,96.96
2019-01-24T14:30:42.108Z,97.34
2019-01-24T14:31:51.779Z,96.96
2019-01-24T14:33:01.703Z,96.87
2019-01-24T14:34:11.387Z,96.87
2019-01-24T14:35:21.043Z,97.72
2019-01-24T14:36:30.561Z,96.96
2019-01-24T14:37:42.356Z,96.73
2019-01-24T14:38:51.776Z,97.34
2019-01-24T14:40:01.446Z,97.34
2019-01-24T14:41:10.621Z,97.58
2019-01-24T14:42:20.296Z,97.34
2019-01-24T14:43:29.470Z,97.53
2019-01-24T14:44:39.138Z,96.87
2019-01-24T14:45:48.323Z,97.06
2019-01-24T14:46:57.486Z,96.82
2019-01-24T14:48:07.158Z,96.96
2019-01-24T14:49:16.579Z,97.1
2019-01-24T14:50:26.891Z,97.06
2019-01-24T14:51:36.817Z,97.06
2019-01-24T14:52:46.237Z,97.34
2019-01-24T14:53:55.663Z,96.87
2019-01-24T14:55:04.834Z,97.1
2019-01-24T14:56:14.496Z,96.82
2019-01-24T14:57:23.939Z,97.58
2019-01-24T14:58:33.375Z,97.67
2019-01-24T14:59:42.795Z,97.53
2019-01-24T15:00:52.211Z,97.63
2019-01-24T15:02:01.881Z,96.96